createdAt,value
2022-11-25T00:00:43.669Z,1007.37
2022-11-25T00:01:43.739Z,1007.40
2022-11-25T00:02:43.832Z,1007.34
2022-11-25T00:03:43.629Z,1007.32
2022-11-25T00:04:43.627Z,1007.38
2022-11-25T00:05:43.604Z,1007.36
2022-11-25T00:06:43.603Z,1007.37
2022-11-25T00:07:43.639Z,1007.29
2022-11-25T00:08:43.607Z,1007.32
2022-11-25T00:09:43.591Z,1007.30
2022-11-25T00:10:43.564Z,1007.32
2022-11-25T00:11:43.559Z,1007.28
2022-11-25T00:12:43.539Z,1007.28
2022-11-25T00:13:43.516Z,1007.24
2022-11-25T00:14:43.540Z,1007.21
2022-11-25T00:15:43.497Z,1007.21
2022-11-25T00:16:48.123Z,1007.14
2022-11-25T00:17:44.473Z,1007.17
2022-11-25T00:18:43.467Z,1007.16
2022-11-25T00:19:43.514Z,1007.12
2022-11-25T00:20:43.449Z,1007.09
2022-11-25T00:21:43.417Z,1007.13
2022-11-25T00:22:43.442Z,1007.12
2022-11-25T00:23:43.442Z,1007.06
2022-11-25T00:24:43.418Z,1007.12
2022-11-25T00:25:43.409Z,1007.14
2022-11-25T00:26:43.372Z,1007.14
2022-11-25T00:27:43.367Z,1007.12
2022-11-25T00:28:43.374Z,1007.20
2022-11-25T00:29:43.333Z,1007.16
2022-11-25T00:30:43.335Z,1007.08
2022-11-25T00:31:43.377Z,1007.13
2022-11-25T00:32:43.312Z,1007.13
2022-11-25T00:33:43.292Z,1007.11
2022-11-25T00:34:43.288Z,1007.16
2022-11-25T00:35:43.261Z,1007.13
2022-11-25T00:36:43.263Z,1007.17
2022-11-25T00:37:43.296Z,1007.11
2022-11-25T00:38:43.231Z,1007.13
2022-11-25T00:39:43.266Z,1007.13
2022-11-25T00:40:43.253Z,1007.15
2022-11-25T00:41:43.212Z,1007.08
2022-11-25T00:42:43.204Z,1007.06
2022-11-25T00:43:43.181Z,1007.06
2022-11-25T00:44:43.195Z,1007.06
2022-11-25T00:45:43.232Z,1007.06
2022-11-25T00:46:43.186Z,1007.02
2022-11-25T00:47:43.132Z,1006.98
2022-11-25T00:48:43.146Z,1006.97
2022-11-25T00:49:43.150Z,1006.98
2022-11-25T00:50:43.104Z,1007.00
2022-11-25T00:51:43.092Z,1007.01
2022-11-25T00:52:43.085Z,1006.98
2022-11-25T00:53:43.056Z,1007.00
2022-11-25T00:54:43.068Z,1007.01
2022-11-25T00:55:43.113Z,1007.00
2022-11-25T00:56:43.111Z,1007.03
2022-11-25T00:57:43.049Z,1007.01
2022-11-25T00:58:43.057Z,1006.99
2022-11-25T00:59:43.016Z,1006.96
2022-11-25T01:00:43.032Z,1006.91
2022-11-25T01:01:42.977Z,1006.96
2022-11-25T01:02:43.045Z,1006.90
2022-11-25T01:03:42.962Z,1006.91
2022-11-25T01:04:42.968Z,1006.89
2022-11-25T01:05:42.952Z,1006.93
2022-11-25T01:06:42.970Z,1006.93
2022-11-25T01:07:42.960Z,1006.92
2022-11-25T01:08:42.902Z,1006.96
2022-11-25T01:09:42.902Z,1006.91
2022-11-25T01:10:42.889Z,1006.97
2022-11-25T01:11:42.893Z,1006.92
2022-11-25T01:12:42.899Z,1006.92
2022-11-25T01:13:42.848Z,1006.94
2022-11-25T01:14:42.848Z,1006.92
2022-11-25T01:15:42.819Z,1006.87
2022-11-25T01:16:42.873Z,1006.90
2022-11-25T01:17:42.801Z,1006.90
2022-11-25T01:18:42.823Z,1006.85
2022-11-25T01:19:42.794Z,1006.84
2022-11-25T01:20:42.799Z,1006.87
2022-11-25T01:21:42.762Z,1006.91
2022-11-25T01:22:42.776Z,1006.86
2022-11-25T01:23:42.752Z,1006.85
2022-11-25T01:24:42.791Z,1006.82
2022-11-25T01:25:42.728Z,1006.86
2022-11-25T01:26:42.730Z,1006.85
2022-11-25T01:27:42.699Z,1006.82
2022-11-25T01:28:42.727Z,1006.86
2022-11-25T01:29:42.711Z,1006.84
2022-11-25T01:30:42.681Z,1006.83
2022-11-25T01:31:42.699Z,1006.90
2022-11-25T01:32:42.642Z,1006.95
2022-11-25T01:33:42.633Z,1006.91
2022-11-25T01:34:42.640Z,1006.92
2022-11-25T01:35:42.625Z,1006.92
2022-11-25T01:36:42.604Z,1006.90
2022-11-25T01:37:42.591Z,1006.88
2022-11-25T01:38:42.584Z,1006.85
2022-11-25T01:39:42.556Z,1006.86
2022-11-25T01:40:42.585Z,1006.85
2022-11-25T01:41:42.544Z,1006.85
2022-11-25T01:42:42.556Z,1006.85
2022-11-25T01:43:42.528Z,1006.92
2022-11-25T01:44:43.477Z,1006.87
2022-11-25T01:45:42.540Z,1006.85
2022-11-25T01:46:42.539Z,1006.79
2022-11-25T01:47:42.496Z,1006.81
2022-11-25T01:48:42.500Z,1006.80
2022-11-25T01:49:42.485Z,1006.81
2022-11-25T01:50:42.446Z,1006.82
2022-11-25T01:51:42.467Z,1006.84
2022-11-25T01:52:42.437Z,1006.83
2022-11-25T01:53:42.409Z,1006.80
2022-11-25T01:54:42.417Z,1006.88
2022-11-25T01:55:42.403Z,1006.89
2022-11-25T01:56:42.394Z,1006.84
2022-11-25T01:57:42.388Z,1006.84
2022-11-25T01:58:42.359Z,1006.74
2022-11-25T01:59:42.354Z,1006.86
2022-11-25T02:00:42.334Z,1006.78
2022-11-25T02:01:42.389Z,1006.81
2022-11-25T02:02:42.397Z,1006.88
2022-11-25T02:03:42.309Z,1006.79
2022-11-25T02:04:42.303Z,1006.83
2022-11-25T02:05:42.289Z,1006.82
2022-11-25T02:06:42.297Z,1006.79
2022-11-25T02:07:42.270Z,1006.82
2022-11-25T02:08:42.271Z,1006.83
2022-11-25T02:09:42.257Z,1006.70
2022-11-25T02:10:42.233Z,1006.78
2022-11-25T02:11:42.235Z,1006.73
2022-11-25T02:12:42.216Z,1006.72
2022-11-25T02:13:42.218Z,1006.67
2022-11-25T02:14:42.192Z,1006.69
2022-11-25T02:15:42.176Z,1006.70
2022-11-25T02:16:42.191Z,1006.61
2022-11-25T02:17:42.145Z,1006.55
2022-11-25T02:18:42.151Z,1006.58
2022-11-25T02:19:42.172Z,1006.64
2022-11-25T02:20:42.143Z,1006.59
2022-11-25T02:21:42.116Z,1006.56
2022-11-25T02:22:42.105Z,1006.54
2022-11-25T02:23:42.079Z,1006.59
2022-11-25T02:24:42.076Z,1006.55
2022-11-25T02:25:42.107Z,1006.53
2022-11-25T02:26:42.079Z,1006.56
2022-11-25T02:27:42.037Z,1006.52
2022-11-25T02:28:42.036Z,1006.57
2022-11-25T02:29:42.047Z,1006.60
2022-11-25T02:30:42.022Z,1006.61
2022-11-25T02:31:42.100Z,1006.67
2022-11-25T02:32:41.977Z,1006.63
2022-11-25T02:33:41.976Z,1006.70
2022-11-25T02:34:41.972Z,1006.60
2022-11-25T02:35:41.992Z,1006.60
2022-11-25T02:36:41.956Z,1006.67
2022-11-25T02:37:41.962Z,1006.58
2022-11-25T02:38:41.928Z,1006.61
2022-11-25T02:39:41.929Z,1006.65
2022-11-25T02:40:41.939Z,1006.67
2022-11-25T02:41:41.869Z,1006.66
2022-11-25T02:42:41.868Z,1006.66
2022-11-25T02:43:41.851Z,1006.75
2022-11-25T02:44:41.885Z,1006.60
2022-11-25T02:45:41.904Z,1006.74
2022-11-25T02:46:41.861Z,1006.67
2022-11-25T02:47:41.826Z,1006.71
2022-11-25T02:49:42.835Z,1006.71
2022-11-25T02:50:42.738Z,1006.70
2022-11-25T02:51:41.804Z,1006.81
2022-11-25T02:52:42.733Z,1006.73
2022-11-25T02:53:41.780Z,1006.72
2022-11-25T02:54:41.772Z,1006.63
2022-11-25T02:55:41.742Z,1006.69
2022-11-25T02:56:41.731Z,1006.65
2022-11-25T02:57:41.702Z,1006.57
2022-11-25T02:58:41.722Z,1006.56
2022-11-25T02:59:41.686Z,1006.61
2022-11-25T03:00:41.715Z,1006.63
2022-11-25T03:01:41.761Z,1006.68
2022-11-25T03:02:41.713Z,1006.67
2022-11-25T03:03:41.669Z,1006.73
2022-11-25T03:04:41.644Z,1006.71
2022-11-25T03:05:42.578Z,1006.70
2022-11-25T03:06:41.663Z,1006.71
2022-11-25T03:07:41.711Z,1006.76
2022-11-25T03:08:41.577Z,1006.72
2022-11-25T03:09:41.600Z,1006.70
2022-11-25T03:10:41.562Z,1006.75
2022-11-25T03:11:41.546Z,1006.75
2022-11-25T03:12:41.526Z,1006.70
2022-11-25T03:13:41.532Z,1006.69
2022-11-25T03:14:41.530Z,1006.75
2022-11-25T03:15:41.503Z,1006.71
2022-11-25T03:16:41.564Z,1006.76
2022-11-25T03:17:41.478Z,1006.79
2022-11-25T03:18:41.470Z,1006.72
2022-11-25T03:19:41.482Z,1006.71
2022-11-25T03:20:41.450Z,1006.75
2022-11-25T03:21:41.429Z,1006.75
2022-11-25T03:22:41.437Z,1006.75
2022-11-25T03:23:41.409Z,1006.74
2022-11-25T03:24:41.457Z,1006.78
2022-11-25T03:25:41.393Z,1006.80
2022-11-25T03:26:41.424Z,1006.79
2022-11-25T03:27:41.373Z,1006.83
2022-11-25T03:28:41.363Z,1006.78
2022-11-25T03:29:41.340Z,1006.82
2022-11-25T03:30:41.360Z,1006.78
2022-11-25T03:31:41.402Z,1006.76
2022-11-25T03:32:41.310Z,1006.75
2022-11-25T03:33:41.311Z,1006.79
2022-11-25T03:34:41.313Z,1006.72
2022-11-25T03:35:41.311Z,1006.78
2022-11-25T03:36:41.314Z,1006.86
2022-11-25T03:37:41.260Z,1006.84
2022-11-25T03:38:41.272Z,1006.90
2022-11-25T03:39:41.233Z,1006.89
2022-11-25T03:40:41.262Z,1006.89
2022-11-25T03:41:41.218Z,1006.89
2022-11-25T03:42:41.201Z,1006.92
2022-11-25T03:43:41.193Z,1006.91
2022-11-25T03:44:41.198Z,1006.91
2022-11-25T03:45:41.321Z,1006.97
2022-11-25T03:46:41.184Z,1006.95
2022-11-25T03:47:41.145Z,1006.92
2022-11-25T03:48:41.134Z,1007.02
2022-11-25T03:49:41.182Z,1007.01
2022-11-25T03:50:41.142Z,1007.11
2022-11-25T03:51:41.129Z,1007.08
2022-11-25T03:52:41.094Z,1007.09
2022-11-25T03:53:41.081Z,1007.21
2022-11-25T03:54:41.124Z,1007.13
2022-11-25T03:55:41.076Z,1007.21
2022-11-25T03:56:41.045Z,1007.12
2022-11-25T03:57:41.066Z,1007.16
2022-11-25T03:58:41.032Z,1007.17
2022-11-25T03:59:41.058Z,1007.20
2022-11-25T04:00:41.005Z,1007.26
2022-11-25T04:01:44.196Z,1007.38
2022-11-25T04:02:41.051Z,1007.33
2022-11-25T04:03:40.971Z,1007.33
2022-11-25T04:04:40.959Z,1007.19
2022-11-25T04:05:40.982Z,1007.26
2022-11-25T04:06:40.970Z,1007.27
2022-11-25T04:07:41.042Z,1007.43
2022-11-25T04:08:40.926Z,1007.35
2022-11-25T04:09:40.901Z,1007.42
2022-11-25T04:10:40.922Z,1007.33
2022-11-25T04:11:40.886Z,1007.44
2022-11-25T04:12:40.854Z,1007.41
2022-11-25T04:13:40.864Z,1007.33
2022-11-25T04:14:40.840Z,1007.41
2022-11-25T04:15:40.841Z,1007.41
2022-11-25T04:16:40.920Z,1007.48
2022-11-25T04:17:40.825Z,1007.48
2022-11-25T04:18:40.794Z,1007.43
2022-11-25T04:19:40.811Z,1007.37
2022-11-25T04:20:40.777Z,1007.43
2022-11-25T04:21:40.803Z,1007.44
2022-11-25T04:22:40.760Z,1007.43
2022-11-25T04:23:40.787Z,1007.51
2022-11-25T04:24:40.758Z,1007.42
2022-11-25T04:25:40.740Z,1007.40
2022-11-25T04:26:40.707Z,1007.43
2022-11-25T04:27:40.736Z,1007.38
2022-11-25T04:28:40.684Z,1007.45
2022-11-25T04:29:41.635Z,1007.49
2022-11-25T04:30:40.750Z,1007.51
2022-11-25T04:31:40.659Z,1007.51
2022-11-25T04:32:40.639Z,1007.56
2022-11-25T04:33:40.671Z,1007.50
2022-11-25T04:34:40.627Z,1007.53
2022-11-25T04:35:40.626Z,1007.57
2022-11-25T04:36:40.595Z,1007.54
2022-11-25T04:37:40.596Z,1007.53
2022-11-25T04:38:40.581Z,1007.58
2022-11-25T04:39:40.612Z,1007.65
2022-11-25T04:40:40.564Z,1007.61
2022-11-25T04:41:40.547Z,1007.64
2022-11-25T04:42:40.549Z,1007.66
2022-11-25T04:43:40.527Z,1007.63
2022-11-25T04:44:40.568Z,1007.55
2022-11-25T04:46:41.572Z,1007.63
2022-11-25T04:47:40.482Z,1007.68
2022-11-25T04:48:40.481Z,1007.65
2022-11-25T04:49:40.468Z,1007.70
2022-11-25T04:50:40.470Z,1007.69
2022-11-25T04:51:40.447Z,1007.64
2022-11-25T04:52:40.449Z,1007.65
2022-11-25T04:53:40.438Z,1007.73
2022-11-25T04:54:40.395Z,1007.66
2022-11-25T04:55:40.440Z,1007.73
2022-11-25T04:56:40.372Z,1007.73
2022-11-25T04:57:40.415Z,1007.72
2022-11-25T04:58:40.383Z,1007.76
2022-11-25T04:59:40.394Z,1007.80
2022-11-25T05:00:40.350Z,1007.79
2022-11-25T05:01:40.400Z,1007.76
2022-11-25T05:02:40.383Z,1007.79
2022-11-25T05:03:44.955Z,1007.81
2022-11-25T05:04:41.292Z,1007.82
2022-11-25T05:05:40.296Z,1007.84
2022-11-25T05:06:40.293Z,1007.85
2022-11-25T05:07:40.382Z,1007.85
2022-11-25T05:08:40.266Z,1007.91
2022-11-25T05:09:41.014Z,1007.93
2022-11-25T05:10:40.265Z,1007.88
2022-11-25T05:11:40.582Z,1007.91
2022-11-25T05:12:40.247Z,1007.94
2022-11-25T05:13:40.270Z,1007.96
2022-11-25T05:14:41.140Z,1007.95
2022-11-25T05:15:40.176Z,1007.97
2022-11-25T05:16:40.263Z,1007.97
2022-11-25T05:17:40.195Z,1007.96
2022-11-25T05:18:40.168Z,1007.94
2022-11-25T05:19:40.131Z,1007.91
2022-11-25T05:20:40.119Z,1007.94
2022-11-25T05:21:40.106Z,1007.98
2022-11-25T05:22:40.117Z,1007.92
2022-11-25T05:23:40.130Z,1007.91
2022-11-25T05:24:40.075Z,1007.91
2022-11-25T05:25:40.072Z,1007.90
2022-11-25T05:26:40.052Z,1007.87
2022-11-25T05:27:40.077Z,1007.90
2022-11-25T05:28:40.158Z,1007.92
2022-11-25T05:29:40.229Z,1007.99
2022-11-25T05:30:40.098Z,1007.98
2022-11-25T05:31:40.010Z,1007.94
2022-11-25T05:32:41.463Z,1007.89
2022-11-25T05:33:41.440Z,1007.84
2022-11-25T05:34:39.991Z,1007.74
2022-11-25T05:35:39.995Z,1007.74
2022-11-25T05:36:39.951Z,1007.75
2022-11-25T05:37:39.952Z,1007.81
2022-11-25T05:38:40.453Z,1007.83
2022-11-25T05:39:39.931Z,1007.89
2022-11-25T05:40:39.910Z,1007.93
2022-11-25T05:41:39.930Z,1007.91
2022-11-25T05:42:39.891Z,1007.96
2022-11-25T05:43:39.879Z,1007.96
2022-11-25T05:44:39.883Z,1008.03
2022-11-25T05:45:39.913Z,1008.13
2022-11-25T05:46:39.843Z,1008.10
2022-11-25T05:47:39.852Z,1008.14
2022-11-25T05:48:39.832Z,1008.07
2022-11-25T05:49:39.802Z,1008.03
2022-11-25T05:50:39.783Z,1008.10
2022-11-25T05:51:39.785Z,1008.00
2022-11-25T05:52:39.796Z,1008.03
2022-11-25T05:53:39.765Z,1008.03
2022-11-25T05:54:39.749Z,1008.09
2022-11-25T05:55:40.685Z,1008.04
2022-11-25T05:56:39.768Z,1008.05
2022-11-25T05:57:39.716Z,1008.09
2022-11-25T05:58:39.724Z,1008.14
2022-11-25T05:59:39.706Z,1008.13
2022-11-25T06:00:39.675Z,1008.14
2022-11-25T06:01:39.686Z,1008.15
2022-11-25T06:02:39.828Z,1008.19
2022-11-25T06:03:39.889Z,1008.24
2022-11-25T06:04:39.800Z,1008.21
2022-11-25T06:05:39.647Z,1008.24
2022-11-25T06:06:39.628Z,1008.24
2022-11-25T06:07:39.699Z,1008.23
2022-11-25T06:08:39.615Z,1008.25
2022-11-25T06:09:39.595Z,1008.21
2022-11-25T06:10:39.582Z,1008.30
2022-11-25T06:11:39.576Z,1008.23
2022-11-25T06:12:39.549Z,1008.27
2022-11-25T06:13:39.580Z,1008.29
2022-11-25T06:14:39.527Z,1008.31
2022-11-25T06:15:41.009Z,1008.31
2022-11-25T06:16:39.511Z,1008.35
2022-11-25T06:17:39.681Z,1008.31
2022-11-25T06:18:39.548Z,1008.33
2022-11-25T06:19:39.524Z,1008.41
2022-11-25T06:20:39.469Z,1008.41
2022-11-25T06:21:39.454Z,1008.41
2022-11-25T06:22:39.507Z,1008.37
2022-11-25T06:23:39.489Z,1008.45
2022-11-25T06:24:39.455Z,1008.41
2022-11-25T06:25:39.425Z,1008.41
2022-11-25T06:26:39.411Z,1008.48
2022-11-25T06:28:10.783Z,1008.53
2022-11-25T06:28:40.962Z,1008.49
2022-11-25T06:29:39.423Z,1008.54
2022-11-25T06:30:39.354Z,1008.55
2022-11-25T06:31:39.585Z,1008.55
2022-11-25T06:32:39.325Z,1008.58
2022-11-25T06:33:39.362Z,1008.60
2022-11-25T06:34:39.329Z,1008.57
2022-11-25T06:35:39.328Z,1008.58
2022-11-25T06:36:39.284Z,1008.64
2022-11-25T06:37:39.285Z,1008.61
2022-11-25T06:38:39.264Z,1008.59
2022-11-25T06:39:40.220Z,1008.54
2022-11-25T06:40:39.266Z,1008.54
2022-11-25T06:41:39.235Z,1008.61
2022-11-25T06:42:39.223Z,1008.58
2022-11-25T06:43:40.101Z,1008.61
2022-11-25T06:44:39.216Z,1008.59
2022-11-25T06:45:39.278Z,1008.57
2022-11-25T06:46:39.297Z,1008.60
2022-11-25T06:47:39.186Z,1008.64
2022-11-25T06:48:40.108Z,1008.64
2022-11-25T06:49:40.123Z,1008.67
2022-11-25T06:50:39.156Z,1008.70
2022-11-25T06:51:39.143Z,1008.67
2022-11-25T06:52:39.130Z,1008.72
2022-11-25T06:53:39.142Z,1008.69
2022-11-25T06:54:39.098Z,1008.69
2022-11-25T06:55:39.085Z,1008.77
2022-11-25T06:56:39.068Z,1008.78
2022-11-25T06:57:39.054Z,1008.80
2022-11-25T06:58:39.058Z,1008.76
2022-11-25T06:59:39.053Z,1008.79
2022-11-25T07:00:39.026Z,1008.88
2022-11-25T07:01:39.146Z,1008.90
2022-11-25T07:02:44.103Z,1008.92
2022-11-25T07:03:40.438Z,1008.98
2022-11-25T07:04:38.975Z,1008.96
2022-11-25T07:05:38.966Z,1008.97
2022-11-25T07:06:39.005Z,1008.96
2022-11-25T07:07:38.992Z,1009.06
2022-11-25T07:08:38.943Z,1009.01
2022-11-25T07:09:38.952Z,1009.00
2022-11-25T07:10:38.924Z,1009.00
2022-11-25T07:11:38.913Z,1009.05
2022-11-25T07:12:38.904Z,1009.04
2022-11-25T07:13:38.883Z,1008.99
2022-11-25T07:14:39.073Z,1009.05
2022-11-25T07:15:38.941Z,1009.05
2022-11-25T07:16:38.861Z,1009.04
2022-11-25T07:17:38.838Z,1009.09
2022-11-25T07:18:38.834Z,1009.02
2022-11-25T07:19:38.841Z,1009.07
2022-11-25T07:20:38.813Z,1009.09
2022-11-25T07:21:38.788Z,1009.13
2022-11-25T07:22:38.815Z,1009.09
2022-11-25T07:23:38.770Z,1009.06
2022-11-25T07:24:38.887Z,1009.10
2022-11-25T07:25:38.766Z,1009.16
2022-11-25T07:26:38.745Z,1009.15
2022-11-25T07:27:38.756Z,1009.16
2022-11-25T07:28:38.738Z,1009.18
2022-11-25T07:31:22.769Z,1009.19
2022-11-25T07:31:39.719Z,1009.16
2022-11-25T07:32:38.728Z,1009.17
2022-11-25T07:33:38.733Z,1009.28
2022-11-25T07:34:38.690Z,1009.31
2022-11-25T07:35:38.638Z,1009.31
2022-11-25T07:36:38.649Z,1009.32
2022-11-25T07:37:38.619Z,1009.37
2022-11-25T07:38:42.215Z,1009.42
2022-11-25T07:39:39.890Z,1009.38
2022-11-25T07:40:38.618Z,1009.48
2022-11-25T07:41:38.589Z,1009.49
2022-11-25T07:42:38.792Z,1009.52
2022-11-25T07:43:38.560Z,1009.45
2022-11-25T07:44:38.550Z,1009.49
2022-11-25T07:45:38.530Z,1009.59
2022-11-25T07:46:38.664Z,1009.61
2022-11-25T07:47:38.512Z,1009.63
2022-11-25T07:48:38.550Z,1009.59
2022-11-25T07:49:39.575Z,1009.59
2022-11-25T07:50:38.492Z,1009.59
2022-11-25T07:51:38.498Z,1009.65
2022-11-25T07:52:38.463Z,1009.63
2022-11-25T07:53:38.465Z,1009.62
2022-11-25T07:54:38.442Z,1009.71
2022-11-25T07:55:38.424Z,1009.77
2022-11-25T07:56:38.405Z,1009.76
2022-11-25T07:57:38.394Z,1009.75
2022-11-25T07:58:42.783Z,1009.74
2022-11-25T07:59:39.629Z,1009.74
2022-11-25T08:00:38.396Z,1009.72
2022-11-25T08:01:38.458Z,1009.67
2022-11-25T08:02:38.596Z,1009.68
2022-11-25T08:03:38.384Z,1009.76
2022-11-25T08:04:38.326Z,1009.75
2022-11-25T08:05:38.454Z,1009.72
2022-11-25T08:06:38.375Z,1009.71
2022-11-25T08:07:38.338Z,1009.71
2022-11-25T08:08:38.298Z,1009.78
2022-11-25T08:09:38.685Z,1009.80
2022-11-25T08:10:39.206Z,1009.80
2022-11-25T08:11:38.260Z,1009.88
2022-11-25T08:12:38.271Z,1009.92
2022-11-25T08:13:38.226Z,1009.90
2022-11-25T08:14:38.248Z,1009.94
2022-11-25T08:15:38.271Z,1009.92
2022-11-25T08:16:38.186Z,1010.01
2022-11-25T08:17:38.569Z,1009.97
2022-11-25T08:18:38.172Z,1010.00
2022-11-25T08:19:38.582Z,1009.95
2022-11-25T08:20:38.160Z,1009.99
2022-11-25T08:21:38.130Z,1010.03
2022-11-25T08:22:38.160Z,1010.06
2022-11-25T08:23:38.142Z,1009.97
2022-11-25T08:24:38.109Z,1010.04
2022-11-25T08:25:38.109Z,1010.05
2022-11-25T08:26:38.070Z,1010.12
2022-11-25T08:27:39.039Z,1010.11
2022-11-25T08:28:38.081Z,1010.07
2022-11-25T08:29:38.243Z,1010.09
2022-11-25T08:30:38.035Z,1010.12
2022-11-25T08:31:38.142Z,1010.13
2022-11-25T08:32:38.089Z,1010.15
2022-11-25T08:33:38.051Z,1010.18
2022-11-25T08:34:37.996Z,1010.10
2022-11-25T08:35:37.998Z,1010.21
2022-11-25T08:36:37.974Z,1010.16
2022-11-25T08:37:37.959Z,1010.19
2022-11-25T08:38:37.969Z,1010.17
2022-11-25T08:39:52.267Z,1010.23
2022-11-25T08:40:38.954Z,1010.20
2022-11-25T08:41:37.907Z,1010.24
2022-11-25T08:42:37.912Z,1010.22
2022-11-25T08:43:37.901Z,1010.29
2022-11-25T08:44:37.885Z,1010.29
2022-11-25T08:45:37.953Z,1010.28
2022-11-25T08:46:37.959Z,1010.30
2022-11-25T08:47:37.844Z,1010.33
2022-11-25T08:48:37.843Z,1010.33
2022-11-25T08:49:41.341Z,1010.28
2022-11-25T08:50:37.842Z,1010.28
2022-11-25T08:51:37.795Z,1010.26
2022-11-25T08:52:37.815Z,1010.31
2022-11-25T08:53:37.783Z,1010.29
2022-11-25T08:54:37.786Z,1010.30
2022-11-25T08:55:37.786Z,1010.26
2022-11-25T08:56:37.829Z,1010.29
2022-11-25T08:57:37.763Z,1010.28
2022-11-25T08:58:37.733Z,1010.31
2022-11-25T08:59:37.984Z,1010.29
2022-11-25T09:00:37.723Z,1010.30
2022-11-25T09:01:37.790Z,1010.31
2022-11-25T09:02:37.783Z,1010.32
2022-11-25T09:03:37.698Z,1010.30
2022-11-25T09:04:37.668Z,1010.38
2022-11-25T09:05:37.656Z,1010.36
2022-11-25T09:06:37.685Z,1010.34
2022-11-25T09:07:37.759Z,1010.39
2022-11-25T09:08:37.619Z,1010.40
2022-11-25T09:09:37.821Z,1010.43
2022-11-25T09:10:38.562Z,1010.48
2022-11-25T09:11:37.623Z,1010.53
2022-11-25T09:12:37.590Z,1010.55
2022-11-25T09:13:37.629Z,1010.55
2022-11-25T09:14:37.553Z,1010.59
2022-11-25T09:15:37.943Z,1010.63
2022-11-25T09:16:37.623Z,1010.55
2022-11-25T09:17:38.477Z,1010.57
2022-11-25T09:18:37.515Z,1010.54
2022-11-25T09:19:37.694Z,1010.57
2022-11-25T09:20:37.492Z,1010.59
2022-11-25T09:21:37.504Z,1010.58
2022-11-25T09:22:37.472Z,1010.55
2022-11-25T09:23:37.494Z,1010.53
2022-11-25T09:24:37.454Z,1010.61
2022-11-25T09:25:37.463Z,1010.57
2022-11-25T09:26:37.424Z,1010.56
2022-11-25T09:27:37.439Z,1010.59
2022-11-25T09:28:37.437Z,1010.58
2022-11-25T09:29:37.579Z,1010.64
2022-11-25T09:30:37.368Z,1010.67
2022-11-25T09:31:37.448Z,1010.75
2022-11-25T09:32:37.357Z,1010.79
2022-11-25T09:33:38.093Z,1010.75
2022-11-25T09:34:42.559Z,1010.79
2022-11-25T09:35:37.337Z,1010.74
2022-11-25T09:36:37.334Z,1010.71
2022-11-25T09:37:37.391Z,1010.72
2022-11-25T09:38:41.679Z,1010.87
2022-11-25T09:39:38.585Z,1010.86
2022-11-25T09:40:37.278Z,1010.82
2022-11-25T09:41:38.231Z,1010.83
2022-11-25T09:42:37.284Z,1010.86
2022-11-25T09:43:37.260Z,1010.92
2022-11-25T09:44:37.279Z,1010.88
2022-11-25T09:45:37.198Z,1010.92
2022-11-25T09:46:37.276Z,1010.98
2022-11-25T09:47:39.309Z,1011.02
2022-11-25T09:48:37.232Z,1011.01
2022-11-25T09:49:37.426Z,1011.00
2022-11-25T09:50:37.174Z,1011.02
2022-11-25T09:51:37.168Z,1011.07
2022-11-25T09:52:37.164Z,1011.08
2022-11-25T09:53:37.118Z,1011.03
2022-11-25T09:54:37.563Z,1011.07
2022-11-25T09:55:37.103Z,1011.13
2022-11-25T09:56:37.081Z,1011.13
2022-11-25T09:57:37.081Z,1011.13
2022-11-25T09:58:37.071Z,1011.09
2022-11-25T09:59:37.457Z,1011.14
2022-11-25T10:00:37.084Z,1011.12
2022-11-25T10:01:37.019Z,1011.16
2022-11-25T10:02:37.136Z,1011.16
2022-11-25T10:03:37.069Z,1011.16
2022-11-25T10:04:37.009Z,1011.13
2022-11-25T10:05:37.037Z,1011.18
2022-11-25T10:06:37.047Z,1011.20
2022-11-25T10:07:37.029Z,1011.24
2022-11-25T10:08:36.982Z,1011.18
2022-11-25T10:09:37.170Z,1011.18
2022-11-25T10:10:36.965Z,1011.20
2022-11-25T10:11:36.917Z,1011.25
2022-11-25T10:12:36.924Z,1011.24
2022-11-25T10:13:36.947Z,1011.23
2022-11-25T10:14:37.287Z,1011.21
2022-11-25T10:15:36.872Z,1011.20
2022-11-25T10:16:37.042Z,1011.16
2022-11-25T10:17:36.923Z,1011.24
2022-11-25T10:18:36.884Z,1011.28
2022-11-25T10:19:37.155Z,1011.26
2022-11-25T10:20:36.825Z,1011.29
2022-11-25T10:21:36.803Z,1011.34
2022-11-25T10:22:36.805Z,1011.35
2022-11-25T10:23:36.808Z,1011.36
2022-11-25T10:24:41.102Z,1011.33
2022-11-25T10:25:36.773Z,1011.41
2022-11-25T10:26:36.757Z,1011.32
2022-11-25T10:27:36.812Z,1011.34
2022-11-25T10:28:36.737Z,1011.40
2022-11-25T10:29:36.763Z,1011.39
2022-11-25T10:30:36.717Z,1011.35
2022-11-25T10:31:36.784Z,1011.34
2022-11-25T10:32:36.696Z,1011.43
2022-11-25T10:33:36.676Z,1011.35
2022-11-25T10:34:37.105Z,1011.37
2022-11-25T10:35:36.691Z,1011.38
2022-11-25T10:36:36.682Z,1011.40
2022-11-25T10:37:36.677Z,1011.41
2022-11-25T10:38:36.641Z,1011.47
2022-11-25T10:39:36.656Z,1011.43
2022-11-25T10:40:36.621Z,1011.43
2022-11-25T10:41:36.622Z,1011.43
2022-11-25T10:42:36.593Z,1011.47
2022-11-25T10:43:37.649Z,1011.49
2022-11-25T10:44:36.954Z,1011.50
2022-11-25T10:45:36.541Z,1011.50
2022-11-25T10:47:11.061Z,1011.56
2022-11-25T10:47:37.632Z,1011.53
2022-11-25T10:48:41.314Z,1011.48
2022-11-25T10:49:37.501Z,1011.51
2022-11-25T10:50:36.492Z,1011.49
2022-11-25T10:51:36.506Z,1011.50
2022-11-25T10:52:36.468Z,1011.48
2022-11-25T10:53:36.453Z,1011.53
2022-11-25T10:54:36.447Z,1011.55
2022-11-25T10:55:36.477Z,1011.57
2022-11-25T10:56:36.416Z,1011.54
2022-11-25T10:57:36.480Z,1011.60
2022-11-25T10:58:36.416Z,1011.57
2022-11-25T10:59:36.391Z,1011.65
2022-11-25T11:00:36.390Z,1011.63
2022-11-25T11:01:36.447Z,1011.59
2022-11-25T11:02:36.438Z,1011.63
2022-11-25T11:03:36.344Z,1011.60
2022-11-25T11:04:36.537Z,1011.65
2022-11-25T11:05:36.322Z,1011.64
2022-11-25T11:06:36.351Z,1011.59
2022-11-25T11:07:36.500Z,1011.62
2022-11-25T11:08:36.289Z,1011.62
2022-11-25T11:09:36.295Z,1011.61
2022-11-25T11:10:36.268Z,1011.66
2022-11-25T11:11:36.264Z,1011.71
2022-11-25T11:12:36.273Z,1011.71
2022-11-25T11:13:36.240Z,1011.73
2022-11-25T11:14:37.409Z,1011.70
2022-11-25T11:15:36.407Z,1011.66
2022-11-25T11:16:36.275Z,1011.70
2022-11-25T11:17:37.329Z,1011.79
2022-11-25T11:18:36.225Z,1011.75
2022-11-25T11:19:36.179Z,1011.74
2022-11-25T11:20:36.168Z,1011.76
2022-11-25T11:21:36.143Z,1011.80
2022-11-25T11:22:36.142Z,1011.77
2022-11-25T11:23:36.124Z,1011.79
2022-11-25T11:24:36.463Z,1011.87
2022-11-25T11:25:36.317Z,1011.87
2022-11-25T11:26:36.105Z,1011.85
2022-11-25T11:27:36.081Z,1011.78
2022-11-25T11:28:36.069Z,1011.82
2022-11-25T11:29:36.065Z,1011.79
2022-11-25T11:30:36.059Z,1011.79
2022-11-25T11:31:36.156Z,1011.80
2022-11-25T11:32:36.606Z,1011.81
2022-11-25T11:33:36.074Z,1011.79
2022-11-25T11:34:36.172Z,1011.81
2022-11-25T11:35:41.552Z,1011.80
2022-11-25T11:36:36.985Z,1011.75
2022-11-25T11:37:35.966Z,1011.86
2022-11-25T11:38:37.441Z,1011.82
2022-11-25T11:39:35.980Z,1011.81
2022-11-25T11:40:36.016Z,1011.85
2022-11-25T11:41:36.135Z,1011.85
2022-11-25T11:42:35.927Z,1011.88
2022-11-25T11:43:36.085Z,1011.85
2022-11-25T11:44:36.177Z,1011.86
2022-11-25T11:45:36.719Z,1011.88
2022-11-25T11:46:35.951Z,1011.96
2022-11-25T11:47:35.872Z,1011.98
2022-11-25T11:48:35.847Z,1011.94
2022-11-25T11:49:36.068Z,1011.97
2022-11-25T11:50:35.889Z,1012.00
2022-11-25T11:51:35.810Z,1012.04
2022-11-25T11:52:35.824Z,1011.97
2022-11-25T11:53:35.801Z,1012.02
2022-11-25T11:54:37.167Z,1012.01
2022-11-25T11:55:35.834Z,1012.01
2022-11-25T11:56:36.347Z,1012.03
2022-11-25T11:57:35.819Z,1012.06
2022-11-25T11:58:35.746Z,1012.09
2022-11-25T11:59:35.729Z,1012.09
2022-11-25T12:00:35.724Z,1012.08
2022-11-25T12:01:35.804Z,1012.13
2022-11-25T12:02:35.696Z,1012.15
2022-11-25T12:03:35.849Z,1012.10
2022-11-25T12:04:36.019Z,1012.13
2022-11-25T12:05:35.646Z,1012.12
2022-11-25T12:06:35.677Z,1012.12
2022-11-25T12:07:35.756Z,1012.18
2022-11-25T12:08:35.644Z,1012.16